createdAt,value
2022-09-21T00:00:25.889Z,51344.84
2022-09-21T00:02:57.050Z,51334.91
2022-09-21T00:05:25.176Z,51354.78
2022-09-21T00:07:52.838Z,51332.91
2022-09-21T00:10:22.274Z,51340.88
2022-09-21T00:12:49.740Z,51338.88
2022-09-21T00:15:20.725Z,51358.75
2022-09-21T00:17:51.627Z,51338.88
2022-09-21T00:20:20.764Z,51374.66
2022-09-21T00:22:52.166Z,51362.75
2022-09-21T00:25:21.413Z,51322.97
2022-09-21T00:27:51.491Z,51332.91
2022-09-21T00:30:19.017Z,51340.88
2022-09-21T00:32:46.383Z,51336.91
2022-09-21T00:35:13.905Z,51330.94
2022-09-21T00:37:41.292Z,51386.59
2022-09-21T00:40:09.306Z,51322.97
2022-09-21T00:42:37.292Z,51321.00
2022-09-21T00:45:06.595Z,51328.94
2022-09-21T00:47:45.718Z,51317.00
2022-09-21T00:50:16.665Z,51340.88
2022-09-21T00:52:48.879Z,51340.88
2022-09-21T00:55:48.266Z,51344.84
2022-09-21T00:58:23.119Z,51346.84
2022-09-21T01:00:50.317Z,51346.84
2022-09-21T01:03:17.427Z,51330.94
2022-09-21T01:05:44.645Z,51328.94
2022-09-21T01:08:15.857Z,51374.66
2022-09-21T01:11:12.246Z,51380.63
2022-09-21T01:13:56.571Z,51328.94
2022-09-21T01:16:34.475Z,51340.88
2022-09-21T01:19:36.597Z,51328.94
2022-09-21T01:22:32.380Z,51317.00
2022-09-21T01:26:02.781Z,51334.91
2022-09-21T01:29:02.211Z,51356.78
2022-09-21T01:31:40.253Z,51328.94
2022-09-21T01:34:36.481Z,51338.88
2022-09-21T01:37:11.941Z,51340.88
2022-09-21T01:39:42.508Z,51340.88
2022-09-21T01:42:13.204Z,51321.00
2022-09-21T01:44:43.202Z,51324.97
2022-09-21T01:47:15.302Z,51344.84
2022-09-21T01:49:48.245Z,51350.81
2022-09-21T01:52:38.386Z,51321.00
2022-09-21T01:55:13.458Z,51358.75
2022-09-21T01:58:04.395Z,51344.84
2022-09-21T02:00:34.628Z,51340.88
2022-09-21T02:03:14.058Z,51344.84
2022-09-21T02:05:41.884Z,51324.97
2022-09-21T02:08:10.431Z,51344.84
2022-09-21T02:10:45.973Z,51352.78
2022-09-21T02:13:16.761Z,51326.94
2022-09-21T02:16:07.133Z,51317.00
2022-09-21T02:18:51.062Z,51299.13
2022-09-21T02:21:52.316Z,51317.00
2022-09-21T02:24:47.267Z,51348.81
2022-09-21T02:27:53.175Z,51340.88
2022-09-21T02:30:23.859Z,51305.09
2022-09-21T02:33:23.804Z,51328.94
2022-09-21T02:36:01.391Z,51338.88
2022-09-21T02:38:34.619Z,51338.88
2022-09-21T02:41:20.421Z,51326.94
2022-09-21T02:44:33.751Z,51328.94
2022-09-21T02:47:10.795Z,51334.91
2022-09-21T02:49:52.259Z,51340.88
2022-09-21T02:52:22.247Z,51332.91
2022-09-21T02:54:52.512Z,51336.91
2022-09-21T02:57:22.383Z,51321.00
2022-09-21T02:59:51.183Z,51305.09
2022-09-21T03:02:18.310Z,51299.13
2022-09-21T03:04:48.407Z,51307.06
2022-09-21T03:07:16.832Z,51340.88
2022-09-21T03:09:44.245Z,51330.94
2022-09-21T03:12:11.617Z,51322.97
2022-09-21T03:14:40.993Z,51340.88
2022-09-21T03:17:09.012Z,51334.91
2022-09-21T03:19:36.348Z,51324.97
2022-09-21T03:22:04.318Z,51346.84
2022-09-21T03:24:46.382Z,51328.94
2022-09-21T03:27:19.917Z,51336.91
2022-09-21T03:29:47.712Z,51324.97
2022-09-21T03:32:14.871Z,51332.91
2022-09-21T03:34:42.106Z,51295.16
2022-09-21T03:37:10.866Z,51338.88
2022-09-21T03:39:37.989Z,51342.84
2022-09-21T03:42:05.216Z,51342.84
2022-09-21T03:44:32.309Z,51348.81
2022-09-21T03:46:59.548Z,51334.91
2022-09-21T03:49:26.748Z,51334.91
2022-09-21T03:51:54.669Z,51338.88
2022-09-21T03:54:21.724Z,51330.94
2022-09-21T03:56:48.895Z,51344.84
2022-09-21T03:59:16.068Z,51342.84
2022-09-21T04:01:43.884Z,51342.84
2022-09-21T04:04:11.058Z,51342.84
2022-09-21T04:06:38.397Z,51344.84
2022-09-21T04:09:05.670Z,51330.94
2022-09-21T04:11:33.370Z,51344.84
2022-09-21T04:14:00.529Z,51358.75
2022-09-21T04:16:28.440Z,51344.84
2022-09-21T04:18:56.026Z,51330.94
2022-09-21T04:21:23.416Z,51303.09
2022-09-21T04:23:51.133Z,51356.78
2022-09-21T04:26:31.767Z,51313.03
2022-09-21T04:28:59.658Z,51326.94
2022-09-21T04:31:28.710Z,51309.06
2022-09-21T04:33:58.407Z,51324.97
2022-09-21T04:36:31.067Z,51332.91
2022-09-21T04:39:05.154Z,51344.84
2022-09-21T04:41:32.656Z,51313.03
2022-09-21T04:44:00.195Z,51295.16
2022-09-21T04:46:27.357Z,51328.94
2022-09-21T04:48:54.587Z,51317.00
2022-09-21T04:51:21.927Z,51321.00
2022-09-21T04:53:48.976Z,51350.81
2022-09-21T04:56:16.842Z,51326.94
2022-09-21T04:58:44.413Z,51348.81
2022-09-21T05:01:11.973Z,51340.88
2022-09-21T05:03:39.545Z,51322.97
2022-09-21T05:06:06.917Z,51356.78
2022-09-21T05:08:52.569Z,51326.94
2022-09-21T05:11:19.827Z,51297.13
2022-09-21T05:13:48.007Z,51360.75
2022-09-21T05:16:16.852Z,51322.97
2022-09-21T05:18:44.958Z,51326.94
2022-09-21T05:21:13.863Z,51340.88
2022-09-21T05:23:41.634Z,51330.94
2022-09-21T05:26:08.667Z,51324.97
2022-09-21T05:28:39.875Z,51332.91
2022-09-21T05:31:28.312Z,51346.84
2022-09-21T05:34:05.759Z,51334.91
2022-09-21T05:36:58.355Z,51322.97
2022-09-21T05:39:26.094Z,51350.81
2022-09-21T05:41:53.841Z,51348.81
2022-09-21T05:44:21.809Z,51334.91
2022-09-21T05:47:05.022Z,51326.94
2022-09-21T05:49:44.087Z,51338.88
2022-09-21T05:52:25.102Z,51346.84
2022-09-21T05:55:13.268Z,51342.84
2022-09-21T05:57:40.342Z,51313.03
2022-09-21T06:00:22.252Z,51344.84
2022-09-21T06:03:04.261Z,51344.84
2022-09-21T06:05:31.351Z,51317.00
2022-09-21T06:07:58.498Z,51344.84
2022-09-21T06:10:25.804Z,51324.97
2022-09-21T06:12:52.879Z,51342.84
2022-09-21T06:15:20.056Z,51346.84
2022-09-21T06:17:47.137Z,51346.84
2022-09-21T06:20:14.312Z,51354.78
2022-09-21T06:22:41.431Z,51330.94
2022-09-21T06:25:08.698Z,51330.94
2022-09-21T06:27:35.858Z,51342.84
2022-09-21T06:30:03.313Z,51360.75
2022-09-21T06:32:31.303Z,51354.78
2022-09-21T06:34:58.382Z,51366.72
2022-09-21T06:37:25.465Z,51372.69
2022-09-21T06:39:52.510Z,51354.78
2022-09-21T06:42:19.662Z,51338.88
2022-09-21T06:44:47.249Z,51362.75
2022-09-21T06:47:14.413Z,51376.66
2022-09-21T06:49:42.694Z,51360.75
2022-09-21T06:52:09.950Z,51344.84
2022-09-21T06:54:36.997Z,51362.75
2022-09-21T06:57:04.171Z,51360.75
2022-09-21T06:59:31.533Z,51376.66
2022-09-21T07:01:58.875Z,51344.84
2022-09-21T07:04:26.113Z,51336.91
2022-09-21T07:06:53.248Z,51354.78
2022-09-21T07:12:08.067Z,51348.81
2022-09-21T07:14:35.218Z,51348.81
2022-09-21T07:17:02.493Z,51366.72
2022-09-21T07:19:29.576Z,51378.66
2022-09-21T07:21:56.689Z,51396.53
2022-09-21T07:24:23.846Z,51330.94
2022-09-21T07:26:50.975Z,51356.78
2022-09-21T07:29:18.029Z,51356.78
2022-09-21T07:31:45.790Z,51344.84
2022-09-21T07:34:12.907Z,51412.44
2022-09-21T07:36:40.508Z,51366.72
2022-09-21T07:39:10.304Z,51392.56
2022-09-21T07:41:37.677Z,51366.72
2022-09-21T07:44:05.475Z,51346.84
2022-09-21T07:46:32.650Z,51368.69
2022-09-21T07:48:59.853Z,51370.69
2022-09-21T07:51:27.086Z,51319.00
2022-09-21T07:53:59.349Z,51368.69
2022-09-21T07:56:26.624Z,51356.78
2022-09-21T07:59:06.122Z,51350.81
2022-09-21T08:01:39.456Z,51370.69
2022-09-21T08:04:09.684Z,51392.56
2022-09-21T08:06:40.111Z,51364.72
2022-09-21T08:09:08.791Z,51368.69
2022-09-21T08:11:37.463Z,51356.78
2022-09-21T08:14:05.100Z,51404.50
2022-09-21T08:16:34.086Z,51378.66
2022-09-21T08:19:02.284Z,51336.91
2022-09-21T08:21:29.581Z,51382.63
2022-09-21T08:23:57.037Z,51362.75
2022-09-21T08:26:24.816Z,51442.25
2022-09-21T08:28:53.812Z,51364.72
2022-09-21T08:31:24.236Z,51386.59
2022-09-21T08:33:52.832Z,51358.75
2022-09-21T08:36:20.136Z,51388.59
2022-09-21T08:38:48.414Z,51378.66
2022-09-21T08:41:22.627Z,51390.56
2022-09-21T08:43:55.872Z,51386.59
2022-09-21T08:46:26.563Z,51356.78
2022-09-21T08:49:14.748Z,51386.59
2022-09-21T08:51:57.083Z,51374.66
2022-09-21T08:54:56.430Z,51370.69
2022-09-21T08:57:30.139Z,51370.69
2022-09-21T08:59:59.305Z,51356.78
2022-09-21T09:03:08.686Z,51368.69
2022-09-21T09:06:00.294Z,51364.72
2022-09-21T09:08:45.627Z,51384.59
2022-09-21T09:11:24.799Z,51392.56
2022-09-21T09:14:27.983Z,51384.59
2022-09-21T09:17:20.078Z,51418.41
2022-09-21T09:19:58.066Z,51396.53
2022-09-21T09:22:41.068Z,51388.59
2022-09-21T09:25:24.944Z,51386.59
2022-09-21T09:27:59.745Z,51396.53
2022-09-21T09:30:30.827Z,51416.41
2022-09-21T09:33:06.746Z,51388.59
2022-09-21T09:35:41.452Z,51376.66
2022-09-21T09:38:34.897Z,51388.59
2022-09-21T09:41:13.874Z,51376.66
2022-09-21T09:44:08.517Z,51400.50
2022-09-21T09:47:28.046Z,51404.50
2022-09-21T09:50:13.485Z,51406.47
2022-09-21T09:52:41.360Z,51426.34
2022-09-21T09:55:41.132Z,51412.44
2022-09-21T09:58:25.415Z,51404.50
2022-09-21T10:00:55.324Z,51418.41
2022-09-21T10:03:26.076Z,51400.50
2022-09-21T10:05:54.053Z,51392.56
2022-09-21T10:08:39.347Z,51388.59
2022-09-21T10:11:06.656Z,51424.38
2022-09-21T10:13:36.673Z,51404.50
2022-09-21T10:16:18.335Z,51372.69
2022-09-21T10:18:52.682Z,51410.44
2022-09-21T10:21:33.064Z,51448.22
2022-09-21T10:24:25.568Z,51422.38
2022-09-21T10:26:57.838Z,51460.16
2022-09-21T10:29:25.490Z,51414.44
2022-09-21T10:32:04.175Z,51402.50
2022-09-21T10:34:34.518Z,51388.59
2022-09-21T10:37:29.498Z,51414.44
2022-09-21T10:39:57.256Z,51410.44
2022-09-21T10:42:24.535Z,51378.66
2022-09-21T10:45:07.171Z,51408.47
2022-09-21T10:48:01.889Z,51402.50
2022-09-21T10:50:49.240Z,51384.59
2022-09-21T10:53:30.569Z,51402.50
2022-09-21T10:56:16.475Z,51396.53
2022-09-21T10:59:12.721Z,51426.34
2022-09-21T11:01:49.773Z,51420.41
2022-09-21T11:04:43.713Z,51408.47
2022-09-21T11:07:25.452Z,51392.56
2022-09-21T11:10:15.247Z,51414.44
2022-09-21T11:13:20.897Z,51412.44
2022-09-21T11:16:23.329Z,51398.53
2022-09-21T11:19:32.545Z,51406.47
2022-09-21T11:22:25.715Z,51432.31
2022-09-21T11:25:36.729Z,51448.22
2022-09-21T11:28:13.473Z,51452.19
2022-09-21T11:31:11.948Z,51440.28
2022-09-21T11:34:22.479Z,51450.22
2022-09-21T11:37:01.725Z,51446.25
2022-09-21T11:39:54.331Z,51472.09
2022-09-21T11:42:40.658Z,51505.88
2022-09-21T11:45:28.874Z,51507.88
2022-09-21T11:48:30.192Z,51432.31
2022-09-21T11:51:49.758Z,51428.34
2022-09-21T11:55:05.195Z,51486.00
2022-09-21T11:57:55.197Z,51448.22
2022-09-21T12:00:25.085Z,51456.19
2022-09-21T12:03:26.253Z,51460.16
2022-09-21T12:06:59.879Z,51617.22
2022-09-21T12:09:30.639Z,51841.91
2022-09-21T12:12:10.762Z,51841.91
2022-09-21T12:15:11.537Z,51726.56
2022-09-21T12:17:51.113Z,51565.53
2022-09-21T12:20:24.823Z,51513.84
2022-09-21T12:23:00.372Z,51517.81
2022-09-21T12:25:41.735Z,51488.00
2022-09-21T12:28:27.930Z,51517.81
2022-09-21T12:31:26.912Z,51658.97
2022-09-21T12:34:13.160Z,51720.59
2022-09-21T12:36:47.651Z,51613.25
2022-09-21T12:39:39.649Z,51549.63
2022-09-21T12:42:40.883Z,51555.59
2022-09-21T12:45:23.113Z,51591.38
2022-09-21T12:47:59.308Z,51531.72
2022-09-21T12:50:39.927Z,51499.91
2022-09-21T12:53:11.353Z,51519.81
2022-09-21T12:55:53.133Z,51480.03
2022-09-21T12:58:38.502Z,51482.03
2022-09-21T13:01:21.233Z,51468.09
2022-09-21T13:04:43.312Z,51452.19
2022-09-21T13:07:19.255Z,51456.19
2022-09-21T13:09:47.650Z,51454.19
2022-09-21T13:12:18.141Z,51454.19
2022-09-21T13:14:50.636Z,51430.34
2022-09-21T13:17:29.155Z,51470.09
2022-09-21T13:20:17.175Z,51430.34
2022-09-21T13:22:46.198Z,51468.09
2022-09-21T13:25:28.162Z,51460.16
2022-09-21T13:28:24.187Z,51464.13
2022-09-21T13:31:45.597Z,51573.47
2022-09-21T13:34:25.068Z,51655.00
2022-09-21T13:37:19.571Z,51603.31
2022-09-21T13:40:13.120Z,51555.59
2022-09-21T13:42:48.915Z,51503.91
2022-09-21T13:45:17.892Z,51507.88
2022-09-21T13:47:47.933Z,51571.50
2022-09-21T13:50:39.671Z,51660.97
2022-09-21T13:53:19.570Z,51802.13
2022-09-21T13:55:56.993Z,51937.34
2022-09-21T13:58:33.954Z,52006.94
2022-09-21T14:01:09.943Z,52114.31
2022-09-21T14:03:58.082Z,51973.13
2022-09-21T14:06:32.678Z,51915.47
2022-09-21T14:09:09.055Z,51770.31
2022-09-21T14:11:45.182Z,51704.69
2022-09-21T14:14:12.348Z,51623.19
2022-09-21T14:16:39.575Z,51565.53
2022-09-21T14:19:18.663Z,51559.56
2022-09-21T14:22:04.456Z,51535.69
2022-09-21T14:24:38.343Z,51503.91
2022-09-21T14:27:36.403Z,51513.84
2022-09-21T14:30:21.590Z,51495.94
2022-09-21T14:33:00.974Z,51493.94
2022-09-21T14:35:37.769Z,51478.03
2022-09-21T14:38:37.926Z,51462.16
2022-09-21T14:41:08.140Z,51464.13
2022-09-21T14:43:37.831Z,51488.00
2022-09-21T14:46:36.218Z,51462.16
2022-09-21T14:49:16.536Z,51462.16
2022-09-21T14:52:33.285Z,51452.19
2022-09-21T14:55:19.169Z,51444.25
2022-09-21T14:58:31.435Z,51448.22
2022-09-21T15:01:34.478Z,51466.13
2022-09-21T15:04:30.489Z,51495.94
2022-09-21T15:07:45.093Z,51466.13
2022-09-21T15:10:56.360Z,51466.13
2022-09-21T15:14:07.195Z,51464.13
2022-09-21T15:16:39.705Z,51474.06
2022-09-21T15:19:19.207Z,51452.19
2022-09-21T15:21:55.335Z,51452.19
2022-09-21T15:24:34.315Z,51491.97
2022-09-21T15:27:10.215Z,51450.22
2022-09-21T15:29:38.370Z,51480.03
2022-09-21T15:32:06.942Z,51468.09
2022-09-21T15:34:34.040Z,51452.19
2022-09-21T15:37:17.059Z,51444.25
2022-09-21T15:39:44.439Z,51448.22
2022-09-21T15:42:19.988Z,51476.06
2022-09-21T15:44:50.622Z,51470.09
2022-09-21T15:47:24.126Z,51458.16
2022-09-21T15:49:53.154Z,51452.19
2022-09-21T15:52:34.835Z,51448.22
2022-09-21T15:55:21.562Z,51458.16
2022-09-21T15:57:56.910Z,51454.19
2022-09-21T16:00:28.724Z,51460.16
2022-09-21T16:03:19.580Z,51462.16
2022-09-21T16:05:51.420Z,51472.09
2022-09-21T16:08:30.539Z,51446.25
2022-09-21T16:11:23.294Z,51464.13
2022-09-21T16:14:35.931Z,51438.28
2022-09-21T16:17:12.344Z,51452.19
2022-09-21T16:19:50.977Z,51426.34
2022-09-21T16:22:32.095Z,51444.25
2022-09-21T16:25:01.731Z,51434.31
2022-09-21T16:27:32.101Z,51432.31
2022-09-21T16:30:01.461Z,51424.38
2022-09-21T16:32:34.193Z,51426.34
2022-09-21T16:35:29.245Z,51414.44
2022-09-21T16:37:59.077Z,51420.41
2022-09-21T16:40:28.309Z,51390.56
2022-09-21T16:42:56.727Z,51388.59
2022-09-21T16:45:32.486Z,51406.47
2022-09-21T16:48:00.074Z,51398.53
2022-09-21T16:50:27.148Z,51396.53
2022-09-21T16:52:54.348Z,51406.47
2022-09-21T16:55:26.831Z,51392.56
2022-09-21T16:57:56.176Z,51384.59
2022-09-21T17:00:23.794Z,51422.38
2022-09-21T17:02:51.102Z,51378.66
2022-09-21T17:05:19.418Z,51390.56
2022-09-21T17:08:15.765Z,51358.75
2022-09-21T17:10:51.957Z,51362.75
2022-09-21T17:13:28.156Z,51368.69
2022-09-21T17:15:55.311Z,51382.63
2022-09-21T17:18:22.350Z,51390.56
2022-09-21T17:20:52.538Z,51392.56
2022-09-21T17:23:20.869Z,51392.56
2022-09-21T17:25:49.668Z,51378.66
2022-09-21T17:28:26.133Z,51372.69
2022-09-21T17:30:57.116Z,51376.66
2022-09-21T17:33:25.465Z,51384.59
2022-09-21T17:35:55.736Z,51364.72
2022-09-21T17:38:22.887Z,51358.75
2022-09-21T17:40:50.674Z,51356.78
2022-09-21T17:43:58.270Z,51366.72
2022-09-21T17:46:43.341Z,51380.63
2022-09-21T17:49:11.957Z,51346.84
2022-09-21T17:51:58.537Z,51344.84
2022-09-21T17:54:27.627Z,51346.84
2022-09-21T17:57:00.027Z,51354.78
2022-09-21T17:59:33.828Z,51356.78
2022-09-21T18:02:02.883Z,51366.72
2022-09-21T18:04:34.942Z,51358.75
2022-09-21T18:07:03.447Z,51348.81
2022-09-21T18:09:30.844Z,51332.91
2022-09-21T18:12:06.912Z,51362.75
2022-09-21T18:15:27.398Z,51348.81
2022-09-21T18:18:14.926Z,51382.63
2022-09-21T18:21:02.254Z,51356.78
2022-09-21T18:23:45.635Z,51352.78
2022-09-21T18:26:15.525Z,51338.88
2022-09-21T18:28:46.569Z,51362.75
2022-09-21T18:31:40.247Z,51334.91
2022-09-21T18:34:55.462Z,51336.91
2022-09-21T18:37:55.271Z,51358.75
2022-09-21T18:40:33.554Z,51352.78
2022-09-21T18:43:41.278Z,51350.81
2022-09-21T18:46:17.864Z,51330.94
2022-09-21T18:49:23.236Z,51376.66
2022-09-21T18:52:10.971Z,51346.84
2022-09-21T18:54:39.564Z,51328.94
2022-09-21T18:57:14.175Z,51338.88
2022-09-21T18:59:42.606Z,51348.81
2022-09-21T19:02:16.566Z,51350.81
2022-09-21T19:04:50.323Z,51348.81
2022-09-21T19:07:41.392Z,51356.78
2022-09-21T19:10:21.644Z,51340.88
2022-09-21T19:13:02.221Z,51366.72
2022-09-21T19:16:01.948Z,51348.81
2022-09-21T19:19:15.822Z,51360.75
2022-09-21T19:21:52.621Z,51342.84
2022-09-21T19:24:42.744Z,51332.91
2022-09-21T19:27:39.406Z,51350.81
2022-09-21T19:30:12.935Z,51338.88
2022-09-21T19:33:00.134Z,51344.84
2022-09-21T19:35:34.349Z,51326.94
2022-09-21T19:38:03.994Z,51372.69
2022-09-21T19:40:35.266Z,51334.91
2022-09-21T19:43:31.402Z,51336.91
2022-09-21T19:46:27.568Z,51336.91
2022-09-21T19:49:08.946Z,51326.94
2022-09-21T19:51:42.991Z,51330.94
2022-09-21T19:54:35.058Z,51336.91
2022-09-21T19:57:30.701Z,51350.81
2022-09-21T19:59:58.846Z,51319.00
2022-09-21T20:03:05.782Z,51348.81
2022-09-21T20:06:08.901Z,51334.91
2022-09-21T20:09:07.798Z,51328.94
2022-09-21T20:12:06.973Z,51332.91
2022-09-21T20:14:49.416Z,51319.00
2022-09-21T20:17:30.400Z,51317.00
2022-09-21T20:20:08.574Z,51328.94
2022-09-21T20:22:41.326Z,51330.94
2022-09-21T20:25:28.006Z,51293.16
2022-09-21T20:27:57.276Z,51317.00
2022-09-21T20:30:32.760Z,51324.97
2022-09-21T20:33:07.611Z,51348.81
2022-09-21T20:35:35.201Z,51334.91
2022-09-21T20:38:03.331Z,51330.94
2022-09-21T20:40:32.105Z,51340.88
2022-09-21T20:43:01.254Z,51328.94
2022-09-21T20:45:29.848Z,51313.03
2022-09-21T20:48:15.808Z,51321.00
2022-09-21T20:50:49.103Z,51340.88
2022-09-21T20:53:17.169Z,51324.97
2022-09-21T20:55:57.405Z,51319.00
2022-09-21T20:58:25.242Z,51319.00
2022-09-21T21:00:57.949Z,51348.81
2022-09-21T21:03:26.196Z,51324.97
2022-09-21T21:05:53.518Z,51336.91
2022-09-21T21:08:20.542Z,51336.91
2022-09-21T21:10:47.742Z,51344.84
2022-09-21T21:13:14.757Z,51386.59
2022-09-21T21:15:41.919Z,51380.63
2022-09-21T21:18:12.366Z,51342.84
2022-09-21T21:20:41.009Z,51307.06
2022-09-21T21:23:08.388Z,51326.94
2022-09-21T21:25:35.972Z,51332.91
2022-09-21T21:28:03.676Z,51317.00
2022-09-21T21:30:31.526Z,51336.91
2022-09-21T21:32:58.601Z,51319.00
2022-09-21T21:35:25.999Z,51309.06
2022-09-21T21:37:53.335Z,51319.00
2022-09-21T21:40:21.210Z,51344.84
2022-09-21T21:42:48.551Z,51307.06
2022-09-21T21:45:15.837Z,51342.84
2022-09-21T21:47:43.005Z,51307.06
2022-09-21T21:50:11.307Z,51352.78
2022-09-21T21:52:39.142Z,51340.88
2022-09-21T21:55:07.557Z,51336.91
2022-09-21T21:57:34.954Z,51324.97
2022-09-21T22:00:02.548Z,51324.97
2022-09-21T22:02:32.621Z,51342.84
2022-09-21T22:04:59.893Z,51321.00
2022-09-21T22:07:27.391Z,51334.91
2022-09-21T22:09:54.630Z,51338.88
2022-09-21T22:12:22.186Z,51317.00
2022-09-21T22:14:49.614Z,51326.94
2022-09-21T22:17:16.880Z,51313.03
2022-09-21T22:19:44.048Z,51321.00
2022-09-21T22:22:11.179Z,51340.88
2022-09-21T22:24:38.256Z,51326.94
2022-09-21T22:27:05.405Z,51321.00
2022-09-21T22:29:32.651Z,51328.94
2022-09-21T22:32:00.615Z,51326.94
2022-09-21T22:34:34.572Z,51321.00
2022-09-21T22:37:01.848Z,51321.00
2022-09-21T22:39:29.006Z,51321.00
2022-09-21T22:41:57.385Z,51326.94
2022-09-21T22:44:24.626Z,51313.03
2022-09-21T22:46:51.712Z,51338.88
2022-09-21T22:49:18.746Z,51326.94
2022-09-21T22:51:45.892Z,51311.06
2022-09-21T22:54:13.061Z,51326.94
2022-09-21T22:56:40.233Z,51324.97
2022-09-21T22:59:08.443Z,51330.94
2022-09-21T23:01:39.458Z,51330.94
2022-09-21T23:04:12.081Z,51324.97
2022-09-21T23:06:45.314Z,51315.03
2022-09-21T23:09:19.695Z,51326.94
2022-09-21T23:11:53.359Z,51344.84
2022-09-21T23:14:21.950Z,51311.06
2022-09-21T23:16:49.113Z,51336.91
2022-09-21T23:19:16.280Z,51321.00
2022-09-21T23:21:49.571Z,51332.91
2022-09-21T23:24:17.561Z,51344.84
2022-09-21T23:26:45.636Z,51326.94
2022-09-21T23:29:15.382Z,51346.84
2022-09-21T23:31:45.469Z,51344.84
2022-09-21T23:34:14.534Z,51305.09
2022-09-21T23:36:43.445Z,51342.84
2022-09-21T23:39:14.050Z,51324.97
2022-09-21T23:41:41.530Z,51330.94
2022-09-21T23:44:09.107Z,51324.97
2022-09-21T23:46:38.756Z,51376.66
2022-09-21T23:49:06.410Z,51307.06
2022-09-21T23:51:34.623Z,51328.94
2022-09-21T23:54:01.998Z,51336.91
2022-09-21T23:56:30.059Z,51321.00
2022-09-21T23:58:58.228Z,51342.84
